createdAt,value
2017-07-29T00:00:18.323Z,1009.75
2017-07-29T00:01:18.347Z,1009.78
2017-07-29T00:02:18.371Z,1009.79
2017-07-29T00:03:18.393Z,1009.81
2017-07-29T00:04:18.417Z,1009.73
2017-07-29T00:05:18.444Z,1009.75
2017-07-29T00:07:18.517Z,1009.74
2017-07-29T00:08:18.516Z,1009.78
2017-07-29T00:09:18.542Z,1009.8
2017-07-29T00:10:18.562Z,1009.82
2017-07-29T00:11:18.584Z,1009.83
2017-07-29T00:12:18.609Z,1009.84
2017-07-29T00:13:18.637Z,1009.81
2017-07-29T00:14:18.659Z,1009.78
2017-07-29T00:15:18.684Z,1009.76
2017-07-29T00:16:18.703Z,1009.71
2017-07-29T00:17:18.731Z,1009.79
2017-07-29T00:18:18.751Z,1009.8
2017-07-29T00:19:18.780Z,1009.85
2017-07-29T00:20:18.803Z,1009.85
2017-07-29T00:21:18.826Z,1009.9
2017-07-29T00:23:18.874Z,1009.92
2017-07-29T00:24:18.896Z,1009.9
2017-07-29T00:25:18.925Z,1009.9
2017-07-29T00:26:18.944Z,1009.91
2017-07-29T00:27:18.970Z,1009.92
2017-07-29T00:28:18.990Z,1009.94
2017-07-29T00:29:19.022Z,1009.9
2017-07-29T00:30:19.043Z,1009.92
2017-07-29T00:31:19.066Z,1009.91
2017-07-29T00:32:19.094Z,1009.95
2017-07-29T00:33:19.115Z,1009.91
2017-07-29T00:34:19.134Z,1009.92
2017-07-29T00:35:19.161Z,1009.92
2017-07-29T00:36:19.188Z,1009.92
2017-07-29T00:38:19.236Z,1009.86
2017-07-29T00:39:19.260Z,1009.9
2017-07-29T00:40:19.284Z,1009.86
2017-07-29T00:41:19.312Z,1009.8
2017-07-29T00:42:19.327Z,1009.78
2017-07-29T00:43:19.356Z,1009.77
2017-07-29T00:44:19.379Z,1009.75
2017-07-29T00:45:19.403Z,1009.71
2017-07-29T00:46:19.425Z,1009.69
2017-07-29T00:47:19.454Z,1009.72
2017-07-29T00:48:19.476Z,1009.74
2017-07-29T00:49:19.500Z,1009.74
2017-07-29T00:50:19.524Z,1009.81
2017-07-29T00:51:19.547Z,1009.8
2017-07-29T00:52:19.568Z,1009.79
2017-07-29T00:53:19.596Z,1009.79
2017-07-29T00:54:19.618Z,1009.83
2017-07-29T00:55:19.644Z,1009.83
2017-07-29T00:56:19.668Z,1009.79
2017-07-29T00:57:19.689Z,1009.76
2017-07-29T00:58:19.715Z,1009.8
2017-07-29T00:59:19.737Z,1009.81
2017-07-29T01:00:19.762Z,1009.79
2017-07-29T01:01:19.787Z,1009.78
2017-07-29T01:02:19.809Z,1009.8
2017-07-29T01:03:19.835Z,1009.8
2017-07-29T01:04:19.862Z,1009.82
2017-07-29T01:05:19.880Z,1009.79
2017-07-29T01:06:19.910Z,1009.79
2017-07-29T01:07:19.931Z,1009.78
2017-07-29T01:08:19.955Z,1009.81
2017-07-29T01:10:20.003Z,1009.8
2017-07-29T01:11:20.029Z,1009.79
2017-07-29T01:12:20.051Z,1009.85
2017-07-29T01:13:20.072Z,1009.81
2017-07-29T01:14:20.101Z,1009.78
2017-07-29T01:15:20.126Z,1009.79
2017-07-29T01:16:20.149Z,1009.77
2017-07-29T01:17:20.168Z,1009.76
2017-07-29T01:18:20.196Z,1009.75
2017-07-29T01:19:20.217Z,1009.78
2017-07-29T01:20:20.239Z,1009.8
2017-07-29T01:21:20.270Z,1009.8
2017-07-29T01:22:20.289Z,1009.83
2017-07-29T01:23:20.314Z,1009.8
2017-07-29T01:24:20.335Z,1009.84
2017-07-29T01:26:20.388Z,1009.85
2017-07-29T01:27:20.407Z,1009.81
2017-07-29T01:28:20.432Z,1009.81
2017-07-29T01:29:20.454Z,1009.8
2017-07-29T01:30:20.481Z,1009.82
2017-07-29T01:31:20.507Z,1009.78
2017-07-29T01:32:20.530Z,1009.82
2017-07-29T01:33:20.551Z,1009.86
2017-07-29T01:34:20.578Z,1009.84
2017-07-29T01:35:20.603Z,1009.89
2017-07-29T01:36:20.627Z,1009.86
2017-07-29T01:37:20.649Z,1009.84
2017-07-29T01:38:20.673Z,1009.81
2017-07-29T01:39:20.696Z,1009.83
2017-07-29T01:40:20.722Z,1009.78
2017-07-29T01:42:20.770Z,1009.76
2017-07-29T01:43:20.794Z,1009.79
2017-07-29T01:44:20.818Z,1009.72
2017-07-29T01:45:20.842Z,1009.78
2017-07-29T01:46:20.863Z,1009.78
2017-07-29T01:47:20.893Z,1009.82
2017-07-29T01:48:20.917Z,1009.81
2017-07-29T01:49:20.939Z,1009.8
2017-07-29T01:50:20.961Z,1009.75
2017-07-29T01:51:20.987Z,1009.73
2017-07-29T01:52:21.008Z,1009.72
2017-07-29T01:53:21.031Z,1009.7
2017-07-29T01:54:21.053Z,1009.67
2017-07-29T01:55:21.083Z,1009.67
2017-07-29T01:56:21.104Z,1009.66
2017-07-29T01:58:21.151Z,1009.66
2017-07-29T01:59:21.179Z,1009.64
2017-07-29T02:00:21.204Z,1009.62
2017-07-29T02:01:21.223Z,1009.64
2017-07-29T02:02:21.246Z,1009.62
2017-07-29T02:03:21.273Z,1009.61
2017-07-29T02:04:21.298Z,1009.6
2017-07-29T02:05:21.322Z,1009.6
2017-07-29T02:06:21.346Z,1009.61
2017-07-29T02:07:21.367Z,1009.6
2017-07-29T02:08:21.389Z,1009.61
2017-07-29T02:09:21.413Z,1009.62
2017-07-29T02:10:21.438Z,1009.63
2017-07-29T02:11:21.464Z,1009.62
2017-07-29T02:13:21.517Z,1009.63
2017-07-29T02:14:21.537Z,1009.61
2017-07-29T02:15:21.558Z,1009.59
2017-07-29T02:16:21.585Z,1009.58
2017-07-29T02:17:21.608Z,1009.55
2017-07-29T02:18:21.633Z,1009.54
2017-07-29T02:19:21.657Z,1009.58
2017-07-29T02:20:21.676Z,1009.61
2017-07-29T02:21:21.704Z,1009.56
2017-07-29T02:22:21.729Z,1009.6
2017-07-29T02:23:21.754Z,1009.56
2017-07-29T02:24:21.778Z,1009.57
2017-07-29T02:25:21.801Z,1009.58
2017-07-29T02:26:21.821Z,1009.64
2017-07-29T02:27:21.845Z,1009.63
2017-07-29T02:28:21.869Z,1009.62
2017-07-29T02:29:21.897Z,1009.6
2017-07-29T02:30:21.918Z,1009.62
2017-07-29T02:31:21.944Z,1009.6
2017-07-29T02:32:21.967Z,1009.61
2017-07-29T02:33:21.993Z,1009.62
2017-07-29T02:34:22.020Z,1009.61
2017-07-29T02:35:22.039Z,1009.6
2017-07-29T02:36:22.067Z,1009.57
2017-07-29T02:37:22.083Z,1009.59
2017-07-29T02:38:22.111Z,1009.58
2017-07-29T02:39:22.133Z,1009.62
2017-07-29T02:40:22.158Z,1009.63
2017-07-29T02:41:22.184Z,1009.59
2017-07-29T02:42:22.207Z,1009.57
2017-07-29T02:43:22.227Z,1009.59
2017-07-29T02:45:22.280Z,1009.58
2017-07-29T02:46:22.354Z,1009.58
2017-07-29T02:47:22.327Z,1009.56
2017-07-29T02:48:22.347Z,1009.59
2017-07-29T02:49:22.372Z,1009.55
2017-07-29T02:50:22.399Z,1009.55
2017-07-29T02:51:22.422Z,1009.58
2017-07-29T02:52:22.446Z,1009.61
2017-07-29T02:53:22.471Z,1009.65
2017-07-29T02:54:22.494Z,1009.6
2017-07-29T02:55:22.518Z,1009.66
2017-07-29T02:56:22.545Z,1009.64
2017-07-29T02:57:22.567Z,1009.68
2017-07-29T02:58:22.590Z,1009.7
2017-07-29T02:59:22.609Z,1009.72
2017-07-29T03:01:22.662Z,1009.75
2017-07-29T03:02:22.689Z,1009.7
2017-07-29T03:03:22.709Z,1009.68
2017-07-29T03:04:22.732Z,1009.67
2017-07-29T03:05:22.758Z,1009.64
2017-07-29T03:06:22.779Z,1009.63
2017-07-29T03:07:22.804Z,1009.61
2017-07-29T03:08:22.828Z,1009.58
2017-07-29T03:09:22.852Z,1009.61
2017-07-29T03:10:22.877Z,1009.64
2017-07-29T03:11:22.902Z,1009.64
2017-07-29T03:12:22.928Z,1009.65
2017-07-29T03:13:22.948Z,1009.65
2017-07-29T03:14:22.970Z,1009.67
2017-07-29T03:15:22.997Z,1009.65
2017-07-29T03:17:23.044Z,1009.65
2017-07-29T03:18:23.068Z,1009.64
2017-07-29T03:19:23.092Z,1009.67
2017-07-29T03:20:23.113Z,1009.67
2017-07-29T03:21:23.137Z,1009.64
2017-07-29T03:22:23.162Z,1009.62
2017-07-29T03:23:23.184Z,1009.6
2017-07-29T03:24:23.211Z,1009.62
2017-07-29T03:25:23.235Z,1009.61
2017-07-29T03:26:23.262Z,1009.62
2017-07-29T03:27:23.433Z,1009.61
2017-07-29T03:28:23.308Z,1009.63
2017-07-29T03:29:23.329Z,1009.62
2017-07-29T03:30:23.357Z,1009.59
2017-07-29T03:31:23.379Z,1009.65
2017-07-29T03:33:23.427Z,1009.65
2017-07-29T03:34:23.449Z,1009.62
2017-07-29T03:35:23.473Z,1009.65
2017-07-29T03:36:23.499Z,1009.62
2017-07-29T03:37:23.522Z,1009.61
2017-07-29T03:38:23.547Z,1009.64
2017-07-29T03:39:23.566Z,1009.67
2017-07-29T03:40:23.594Z,1009.61
2017-07-29T03:41:23.618Z,1009.67
2017-07-29T03:42:23.641Z,1009.67
2017-07-29T03:43:23.665Z,1009.63
2017-07-29T03:44:23.684Z,1009.67
2017-07-29T03:45:23.717Z,1009.68
2017-07-29T03:46:23.739Z,1009.69
2017-07-29T03:48:23.786Z,1009.69
2017-07-29T03:49:23.808Z,1009.66
2017-07-29T03:50:23.833Z,1009.66
2017-07-29T03:51:23.855Z,1009.7
2017-07-29T03:52:23.882Z,1009.7
2017-07-29T03:53:23.904Z,1009.72
2017-07-29T03:54:23.931Z,1009.77
2017-07-29T03:55:23.953Z,1009.8
2017-07-29T03:56:23.975Z,1009.77
2017-07-29T03:57:24.000Z,1009.75
2017-07-29T03:58:24.022Z,1009.79
2017-07-29T03:59:24.048Z,1009.78
2017-07-29T04:00:24.072Z,1009.77
2017-07-29T04:01:24.099Z,1009.79
2017-07-29T04:02:24.119Z,1009.77
2017-07-29T04:03:24.144Z,1009.77
2017-07-29T04:04:24.166Z,1009.78
2017-07-29T04:05:24.190Z,1009.76
2017-07-29T04:06:24.213Z,1009.73
2017-07-29T04:07:24.241Z,1009.75
2017-07-29T04:08:24.262Z,1009.72
2017-07-29T04:09:24.289Z,1009.68
2017-07-29T04:10:24.310Z,1009.69
2017-07-29T04:11:24.335Z,1009.61
2017-07-29T04:12:24.359Z,1009.61
2017-07-29T04:13:24.381Z,1009.58
2017-07-29T04:14:24.409Z,1009.59
2017-07-29T04:15:24.430Z,1009.56
2017-07-29T04:16:24.454Z,1009.65
2017-07-29T04:17:24.477Z,1009.61
2017-07-29T04:18:24.501Z,1009.61
2017-07-29T04:20:24.551Z,1009.58
2017-07-29T04:21:24.575Z,1009.55
2017-07-29T04:22:24.599Z,1009.57
2017-07-29T04:23:24.625Z,1009.55
2017-07-29T04:24:24.644Z,1009.52
2017-07-29T04:25:24.672Z,1009.53
2017-07-29T04:26:24.696Z,1009.49
2017-07-29T04:27:24.719Z,1009.48
2017-07-29T04:28:24.740Z,1009.44
2017-07-29T04:29:24.769Z,1009.42
2017-07-29T04:30:24.787Z,1009.39
2017-07-29T04:31:24.813Z,1009.4
2017-07-29T04:32:24.836Z,1009.4
2017-07-29T04:33:24.863Z,1009.47
2017-07-29T04:34:24.885Z,1009.42
2017-07-29T04:36:24.936Z,1009.47
2017-07-29T04:37:24.956Z,1009.47
2017-07-29T04:38:24.986Z,1009.49
2017-07-29T04:39:25.009Z,1009.51
2017-07-29T04:40:25.031Z,1009.51
2017-07-29T04:41:25.106Z,1009.47
2017-07-29T04:42:25.078Z,1009.47
2017-07-29T04:43:25.105Z,1009.36
2017-07-29T04:44:25.131Z,1009.33
2017-07-29T04:45:25.153Z,1009.28
2017-07-29T04:46:25.172Z,1009.29
2017-07-29T04:47:25.201Z,1009.33
2017-07-29T04:48:25.223Z,1009.36
2017-07-29T04:49:25.248Z,1009.41
2017-07-29T04:50:25.271Z,1009.4
2017-07-29T04:52:25.317Z,1009.54
2017-07-29T04:53:25.344Z,1009.59
2017-07-29T04:54:25.369Z,1009.69
2017-07-29T04:55:25.391Z,1009.76
2017-07-29T04:56:25.414Z,1009.76
2017-07-29T04:57:25.445Z,1009.77
2017-07-29T04:58:25.464Z,1009.79
2017-07-29T04:59:25.489Z,1009.81
2017-07-29T05:00:25.514Z,1009.81
2017-07-29T05:01:25.539Z,1009.85
2017-07-29T05:02:25.562Z,1009.88
2017-07-29T05:03:25.587Z,1009.9
2017-07-29T05:04:25.607Z,1009.91
2017-07-29T05:05:25.638Z,1009.91
2017-07-29T05:06:25.661Z,1009.9
2017-07-29T05:08:25.713Z,1009.89
2017-07-29T05:09:25.733Z,1009.88
2017-07-29T05:10:25.756Z,1009.9
2017-07-29T05:11:25.781Z,1009.88
2017-07-29T05:12:25.805Z,1009.85
2017-07-29T05:13:25.827Z,1009.85
2017-07-29T05:14:25.878Z,1009.89
2017-07-29T05:15:25.878Z,1009.85
2017-07-29T05:16:25.920Z,1009.81
2017-07-29T05:17:25.925Z,1009.8
2017-07-29T05:18:25.950Z,1009.83
2017-07-29T05:19:25.971Z,1009.76
2017-07-29T05:20:25.997Z,1009.75
2017-07-29T05:21:26.024Z,1009.68
2017-07-29T05:23:26.076Z,1009.72
2017-07-29T05:24:26.099Z,1009.73
2017-07-29T05:25:26.122Z,1009.76
2017-07-29T05:26:26.147Z,1009.78
2017-07-29T05:27:26.170Z,1009.77
2017-07-29T05:28:26.193Z,1009.82
2017-07-29T05:29:26.216Z,1009.82
2017-07-29T05:30:26.246Z,1009.82
2017-07-29T05:31:26.268Z,1009.88
2017-07-29T05:32:26.293Z,1009.84
2017-07-29T05:33:26.316Z,1009.83
2017-07-29T05:34:26.340Z,1009.82
2017-07-29T05:35:26.362Z,1009.88
2017-07-29T05:36:26.386Z,1009.8
2017-07-29T05:37:26.413Z,1009.8
2017-07-29T05:38:26.437Z,1009.77
2017-07-29T05:39:26.461Z,1009.79
2017-07-29T05:40:26.488Z,1009.82
2017-07-29T05:41:26.516Z,1009.76
2017-07-29T05:42:26.531Z,1009.8
2017-07-29T05:43:26.558Z,1009.77
2017-07-29T05:44:26.584Z,1009.74
2017-07-29T05:45:26.612Z,1009.73
2017-07-29T05:46:26.632Z,1009.75
2017-07-29T05:47:26.653Z,1009.75
2017-07-29T05:48:26.680Z,1009.72
2017-07-29T05:49:26.705Z,1009.72
2017-07-29T05:50:26.729Z,1009.72
2017-07-29T05:51:26.754Z,1009.73
2017-07-29T05:52:26.775Z,1009.76
2017-07-29T05:53:26.800Z,1009.79
2017-07-29T05:55:26.852Z,1009.82
2017-07-29T05:56:26.878Z,1009.8
2017-07-29T05:57:26.896Z,1009.85
2017-07-29T05:58:26.924Z,1009.86
2017-07-29T05:59:26.947Z,1009.85
2017-07-29T06:00:26.972Z,1009.79
2017-07-29T06:01:26.998Z,1009.82
2017-07-29T06:02:27.025Z,1009.83
2017-07-29T06:03:27.049Z,1009.84
2017-07-29T06:04:27.070Z,1009.79
2017-07-29T06:05:27.101Z,1009.76
2017-07-29T06:06:27.121Z,1009.74
2017-07-29T06:07:27.150Z,1009.72
2017-07-29T06:08:27.172Z,1009.66
2017-07-29T06:09:27.196Z,1009.65
2017-07-29T06:11:27.242Z,1009.57
2017-07-29T06:12:27.272Z,1009.53
2017-07-29T06:13:27.293Z,1009.5
2017-07-29T06:14:27.323Z,1009.45
2017-07-29T06:15:27.346Z,1009.42
2017-07-29T06:16:27.369Z,1009.4
2017-07-29T06:17:27.394Z,1009.42
2017-07-29T06:18:27.419Z,1009.41
2017-07-29T06:19:27.443Z,1009.46
2017-07-29T06:20:27.468Z,1009.52
2017-07-29T06:21:27.495Z,1009.53
2017-07-29T06:22:27.517Z,1009.61
2017-07-29T06:23:27.541Z,1009.71
2017-07-29T06:24:27.570Z,1009.74
2017-07-29T06:25:27.590Z,1009.76
2017-07-29T06:27:27.643Z,1009.79
2017-07-29T06:28:27.669Z,1009.85
2017-07-29T06:29:27.693Z,1009.76
2017-07-29T06:30:27.714Z,1009.77
2017-07-29T06:31:27.739Z,1009.78
2017-07-29T06:32:27.768Z,1009.77
2017-07-29T06:33:27.791Z,1009.78
2017-07-29T06:34:27.814Z,1009.73
2017-07-29T06:35:27.836Z,1009.71
2017-07-29T06:36:27.866Z,1009.68
2017-07-29T06:37:27.888Z,1009.64
2017-07-29T06:38:27.913Z,1009.6
2017-07-29T06:39:27.938Z,1009.7
2017-07-29T06:40:27.965Z,1009.71
2017-07-29T06:41:27.990Z,1009.72
2017-07-29T06:43:28.043Z,1009.79
2017-07-29T06:44:28.066Z,1009.78
2017-07-29T06:45:28.087Z,1009.74
2017-07-29T06:46:28.116Z,1009.73
2017-07-29T06:47:28.141Z,1009.73
2017-07-29T06:48:28.166Z,1009.68
2017-07-29T06:49:28.240Z,1009.67
2017-07-29T06:50:28.217Z,1009.71
2017-07-29T06:51:28.248Z,1009.76
2017-07-29T06:52:28.266Z,1009.77
2017-07-29T06:53:28.293Z,1009.74
2017-07-29T06:54:28.317Z,1009.67
2017-07-29T06:55:28.341Z,1009.68
2017-07-29T06:56:28.370Z,1009.7
2017-07-29T06:58:28.421Z,1009.65
2017-07-29T06:59:28.446Z,1009.66
2017-07-29T07:00:28.475Z,1009.7
2017-07-29T07:01:28.498Z,1009.71
2017-07-29T07:02:28.523Z,1009.7
2017-07-29T07:03:28.548Z,1009.68
2017-07-29T07:04:28.576Z,1009.72
2017-07-29T07:05:28.601Z,1009.7
2017-07-29T07:06:28.625Z,1009.66
2017-07-29T07:07:28.650Z,1009.7
2017-07-29T07:08:28.674Z,1009.66
2017-07-29T07:09:28.701Z,1009.66
2017-07-29T07:10:28.726Z,1009.67
2017-07-29T07:11:28.755Z,1009.69
2017-07-29T07:12:28.775Z,1009.72
2017-07-29T07:13:28.802Z,1009.71
2017-07-29T07:14:28.827Z,1009.7
2017-07-29T07:15:28.856Z,1009.69
2017-07-29T07:16:28.880Z,1009.69
2017-07-29T07:17:28.928Z,1009.7
2017-07-29T07:18:28.933Z,1009.76
2017-07-29T07:19:28.955Z,1009.72
2017-07-29T07:20:28.983Z,1009.71
2017-07-29T07:21:29.007Z,1009.67
2017-07-29T07:22:29.031Z,1009.68
2017-07-29T07:23:29.058Z,1009.69
2017-07-29T07:24:29.084Z,1009.72
2017-07-29T07:25:29.105Z,1009.71
2017-07-29T07:26:29.134Z,1009.72
2017-07-29T07:27:29.160Z,1009.69
2017-07-29T07:28:29.185Z,1009.67
2017-07-29T07:30:29.234Z,1009.66
2017-07-29T07:31:29.264Z,1009.64
2017-07-29T07:32:29.286Z,1009.64
2017-07-29T07:33:29.314Z,1009.61
2017-07-29T07:34:29.342Z,1009.57
2017-07-29T07:35:29.363Z,1009.61
2017-07-29T07:36:29.387Z,1009.6
2017-07-29T07:37:29.412Z,1009.62
2017-07-29T07:38:29.439Z,1009.61
2017-07-29T07:39:29.464Z,1009.63
2017-07-29T07:40:29.489Z,1009.62
2017-07-29T07:41:29.514Z,1009.64
2017-07-29T07:42:29.540Z,1009.67
2017-07-29T07:43:29.567Z,1009.68
2017-07-29T07:44:29.592Z,1009.72
2017-07-29T07:46:29.644Z,1009.72
2017-07-29T07:47:29.663Z,1009.73
2017-07-29T07:48:29.696Z,1009.71
2017-07-29T07:49:29.718Z,1009.7
2017-07-29T07:50:29.746Z,1009.66
2017-07-29T07:51:29.769Z,1009.66
2017-07-29T07:52:29.793Z,1009.68
2017-07-29T07:53:29.823Z,1009.64
2017-07-29T07:54:29.847Z,1009.65
2017-07-29T07:55:29.870Z,1009.64
2017-07-29T07:56:29.894Z,1009.62
2017-07-29T07:57:29.921Z,1009.6
2017-07-29T07:58:29.944Z,1009.59
2017-07-29T07:59:29.979Z,1009.58
2017-07-29T08:00:29.999Z,1009.58
2017-07-29T08:02:30.048Z,1009.51
2017-07-29T08:03:30.074Z,1009.51
2017-07-29T08:04:30.099Z,1009.49
2017-07-29T08:05:30.124Z,1009.42
2017-07-29T08:06:30.149Z,1009.45
2017-07-29T08:07:30.174Z,1009.47
2017-07-29T08:08:30.203Z,1009.48
2017-07-29T08:09:30.228Z,1009.43
2017-07-29T08:10:30.254Z,1009.4
2017-07-29T08:11:30.278Z,1009.44
2017-07-29T08:12:30.302Z,1009.44
2017-07-29T08:13:30.328Z,1009.41
2017-07-29T08:14:30.357Z,1009.42
2017-07-29T08:15:30.381Z,1009.47
2017-07-29T08:16:30.408Z,1009.45
2017-07-29T08:18:30.462Z,1009.46
2017-07-29T08:19:30.484Z,1009.41
2017-07-29T08:20:30.508Z,1009.43
2017-07-29T08:21:30.536Z,1009.39
2017-07-29T08:22:30.563Z,1009.4
2017-07-29T08:23:30.589Z,1009.37
2017-07-29T08:24:30.611Z,1009.37
2017-07-29T08:25:30.642Z,1009.34
2017-07-29T08:26:30.669Z,1009.39
2017-07-29T08:27:30.694Z,1009.38
2017-07-29T08:28:30.721Z,1009.37
2017-07-29T08:29:30.749Z,1009.35
2017-07-29T08:30:30.776Z,1009.35
2017-07-29T08:31:30.798Z,1009.35
2017-07-29T08:33:30.853Z,1009.33
2017-07-29T08:34:30.882Z,1009.41
2017-07-29T08:35:30.910Z,1009.33
2017-07-29T08:36:30.940Z,1009.6
2017-07-29T08:37:30.965Z,1009.36
2017-07-29T08:38:30.994Z,1009.38
2017-07-29T08:39:31.018Z,1009.49
2017-07-29T08:40:31.050Z,1009.41
2017-07-29T08:41:31.076Z,1009.5
2017-07-29T08:42:31.105Z,1009.46
2017-07-29T08:43:31.128Z,1009.49
2017-07-29T08:44:31.162Z,1009.49
2017-07-29T08:45:31.188Z,1009.6
2017-07-29T08:46:31.222Z,1009.76
2017-07-29T08:47:31.251Z,1009.78
2017-07-29T08:48:31.275Z,1009.68
2017-07-29T08:49:31.305Z,1009.85
2017-07-29T08:50:31.335Z,1009.77
2017-07-29T08:51:31.368Z,1009.81
2017-07-29T08:52:31.394Z,1009.83
2017-07-29T08:53:31.426Z,1009.81
2017-07-29T08:54:31.450Z,1009.71
2017-07-29T08:55:31.486Z,1009.58
2017-07-29T08:56:31.515Z,1009.57
2017-07-29T08:57:31.551Z,1009.59
2017-07-29T08:58:31.577Z,1009.57
2017-07-29T08:59:31.610Z,1009.6
2017-07-29T09:00:31.641Z,1009.59
2017-07-29T09:01:31.670Z,1009.59
2017-07-29T09:02:31.706Z,1009.57
2017-07-29T09:03:31.738Z,1009.56
2017-07-29T09:05:31.801Z,1009.5
2017-07-29T09:06:31.835Z,1009.48
2017-07-29T09:07:31.866Z,1009.43
2017-07-29T09:08:31.900Z,1009.34
2017-07-29T09:09:31.932Z,1009.31
2017-07-29T09:10:31.964Z,1009.31
2017-07-29T09:11:31.998Z,1009.31
2017-07-29T09:12:32.031Z,1009.36
2017-07-29T09:13:32.066Z,1009.26
2017-07-29T09:14:32.097Z,1009.28
2017-07-29T09:15:32.129Z,1009.15
2017-07-29T09:16:32.160Z,1009.18
2017-07-29T09:17:32.192Z,1009.34
2017-07-29T09:18:32.228Z,1009.33
2017-07-29T09:19:32.257Z,1009.32
2017-07-29T09:21:32.325Z,1009.34
2017-07-29T09:22:32.358Z,1009.35
2017-07-29T09:23:32.391Z,1009.51
2017-07-29T09:24:32.424Z,1009.36
2017-07-29T09:25:32.459Z,1009.41
2017-07-29T09:26:32.492Z,1009.33
2017-07-29T09:27:32.522Z,1009.35
2017-07-29T09:28:32.556Z,1009.34
2017-07-29T09:29:32.589Z,1009.32
2017-07-29T09:30:32.621Z,1009.28
2017-07-29T09:31:32.652Z,1009.35
2017-07-29T09:32:32.688Z,1009.24
2017-07-29T09:33:32.748Z,1009.33
2017-07-29T09:34:32.747Z,1009.37
2017-07-29T09:35:32.782Z,1009.24
2017-07-29T09:37:32.851Z,1009.35
2017-07-29T09:38:32.876Z,1009.33
2017-07-29T09:39:32.911Z,1009.31
2017-07-29T09:40:32.943Z,1009.38
2017-07-29T09:41:32.977Z,1009.38
2017-07-29T09:42:33.003Z,1009.35
2017-07-29T09:43:33.041Z,1009.34
2017-07-29T09:44:33.070Z,1009.29
2017-07-29T09:45:33.099Z,1009.34
2017-07-29T09:46:33.135Z,1009.41
2017-07-29T09:47:33.166Z,1009.4
2017-07-29T09:48:33.197Z,1009.43
2017-07-29T09:49:33.228Z,1009.4
2017-07-29T09:50:33.261Z,1009.38
2017-07-29T09:51:33.289Z,1009.41
2017-07-29T09:53:33.355Z,1009.39
2017-07-29T09:54:33.388Z,1009.4
2017-07-29T09:55:33.420Z,1009.41
2017-07-29T09:56:33.454Z,1009.34
2017-07-29T09:57:33.485Z,1009.34
2017-07-29T09:58:33.517Z,1009.31
2017-07-29T09:59:33.545Z,1009.24
2017-07-29T10:00:33.579Z,1009.24
2017-07-29T10:01:33.612Z,1009.27
2017-07-29T10:02:33.642Z,1009.16
2017-07-29T10:03:33.673Z,1009.21
2017-07-29T10:04:33.703Z,1009.25
2017-07-29T10:05:33.733Z,1009.28
2017-07-29T10:06:33.765Z,1009.22
2017-07-29T10:08:33.828Z,1009.26
2017-07-29T10:09:33.857Z,1009.24
2017-07-29T10:10:33.887Z,1009.14
2017-07-29T10:11:33.922Z,1009.16
2017-07-29T10:12:33.957Z,1009.17
2017-07-29T10:13:33.980Z,1009.12
2017-07-29T10:14:34.016Z,1009.12
2017-07-29T10:15:34.046Z,1009.05
2017-07-29T10:16:34.077Z,1009
2017-07-29T10:17:34.106Z,1008.96
2017-07-29T10:18:34.139Z,1009.03
2017-07-29T10:19:34.174Z,1009.08
2017-07-29T10:20:34.197Z,1009.04
2017-07-29T10:21:34.240Z,1009.04
2017-07-29T10:22:34.265Z,1009.01
2017-07-29T10:23:34.294Z,1009.03
2017-07-29T10:24:34.329Z,1008.99
2017-07-29T10:25:34.359Z,1009.03
2017-07-29T10:26:34.390Z,1009.04
2017-07-29T10:27:34.418Z,1008.96
2017-07-29T10:28:34.454Z,1008.93
2017-07-29T10:29:34.483Z,1008.92
2017-07-29T10:30:34.514Z,1008.94
2017-07-29T10:31:34.546Z,1008.89
2017-07-29T10:32:34.576Z,1008.9
2017-07-29T10:33:34.610Z,1008.89
2017-07-29T10:34:34.640Z,1008.89
2017-07-29T10:35:34.675Z,1008.9
2017-07-29T10:36:34.699Z,1008.94
2017-07-29T10:37:34.736Z,1008.9
2017-07-29T10:38:34.767Z,1008.9
2017-07-29T10:40:34.831Z,1008.95
2017-07-29T10:41:34.860Z,1008.92
2017-07-29T10:42:34.892Z,1008.92
2017-07-29T10:43:34.924Z,1008.81
2017-07-29T10:44:34.953Z,1008.79
2017-07-29T10:45:34.985Z,1008.81
2017-07-29T10:46:35.015Z,1008.79
2017-07-29T10:47:35.047Z,1008.73
2017-07-29T10:48:35.079Z,1008.71
2017-07-29T10:49:35.109Z,1008.79
2017-07-29T10:50:35.141Z,1008.74
2017-07-29T10:51:35.170Z,1008.73
2017-07-29T10:52:35.203Z,1008.79
2017-07-29T10:53:35.233Z,1008.81
2017-07-29T10:54:35.262Z,1008.73
2017-07-29T10:56:35.329Z,1008.75
2017-07-29T10:57:35.358Z,1008.7
2017-07-29T10:58:35.390Z,1008.7
2017-07-29T10:59:35.418Z,1008.69
2017-07-29T11:00:35.452Z,1008.72
2017-07-29T11:01:35.482Z,1008.7
2017-07-29T11:02:35.512Z,1008.72
2017-07-29T11:03:35.544Z,1008.65
2017-07-29T11:04:35.576Z,1008.61
2017-07-29T11:05:35.604Z,1008.73
2017-07-29T11:06:35.635Z,1008.77
2017-07-29T11:07:35.667Z,1008.67
2017-07-29T11:08:35.697Z,1008.62
2017-07-29T11:09:35.728Z,1008.75
2017-07-29T11:10:35.761Z,1008.69
2017-07-29T11:12:35.820Z,1008.7
2017-07-29T11:13:35.851Z,1008.68
2017-07-29T11:14:35.882Z,1008.68
2017-07-29T11:15:35.915Z,1008.72
2017-07-29T11:16:35.942Z,1008.77
2017-07-29T11:17:35.971Z,1008.74
2017-07-29T11:18:36.004Z,1008.66
2017-07-29T11:19:36.034Z,1008.63
2017-07-29T11:20:36.065Z,1008.68
2017-07-29T11:21:36.100Z,1008.67
2017-07-29T11:22:36.128Z,1008.63
2017-07-29T11:23:36.152Z,1008.7
2017-07-29T11:24:36.185Z,1008.66
2017-07-29T11:25:36.216Z,1008.69
2017-07-29T11:26:36.243Z,1008.67
2017-07-29T11:28:36.304Z,1008.66
2017-07-29T11:29:36.338Z,1008.67
2017-07-29T11:30:36.365Z,1008.57
2017-07-29T11:31:36.397Z,1008.64
2017-07-29T11:32:36.426Z,1008.65
2017-07-29T11:33:36.457Z,1008.62
2017-07-29T11:34:36.485Z,1008.66
2017-07-29T11:35:36.515Z,1008.66
2017-07-29T11:36:36.542Z,1008.65
2017-07-29T11:37:36.575Z,1008.65
2017-07-29T11:38:36.601Z,1008.63
2017-07-29T11:39:36.635Z,1008.61
2017-07-29T11:40:36.667Z,1008.58
2017-07-29T11:41:36.694Z,1008.61
2017-07-29T11:43:36.751Z,1008.68
2017-07-29T11:44:36.783Z,1008.64
2017-07-29T11:45:36.815Z,1008.61
2017-07-29T11:46:36.837Z,1008.61
2017-07-29T11:47:36.872Z,1008.65
2017-07-29T11:48:36.900Z,1008.68
2017-07-29T11:49:36.932Z,1008.67
2017-07-29T11:50:36.964Z,1008.67
2017-07-29T11:51:36.988Z,1008.62
2017-07-29T11:52:37.020Z,1008.59
2017-07-29T11:53:37.052Z,1008.61
2017-07-29T11:54:37.081Z,1008.6
2017-07-29T11:55:37.110Z,1008.64
2017-07-29T11:56:37.141Z,1008.64
2017-07-29T11:57:37.171Z,1008.58
2017-07-29T11:58:37.200Z,1008.57
2017-07-29T11:59:37.229Z,1008.59
2017-07-29T12:00:37.260Z,1008.64
2017-07-29T12:01:37.291Z,1008.58
2017-07-29T12:02:37.318Z,1008.63
2017-07-29T12:03:37.355Z,1008.58
2017-07-29T12:04:37.380Z,1008.62
2017-07-29T12:05:37.412Z,1008.54
2017-07-29T12:06:37.435Z,1008.59
2017-07-29T12:07:37.467Z,1008.56
2017-07-29T12:08:37.497Z,1008.59
2017-07-29T12:09:37.525Z,1008.54
2017-07-29T12:10:37.556Z,1008.51
2017-07-29T12:11:37.586Z,1008.56
2017-07-29T12:12:37.617Z,1008.51
2017-07-29T12:13:37.647Z,1008.57
2017-07-29T12:15:37.707Z,1008.52
2017-07-29T12:16:37.736Z,1008.5
2017-07-29T12:17:37.765Z,1008.5
2017-07-29T12:18:37.795Z,1008.49
2017-07-29T12:19:37.824Z,1008.58
2017-07-29T12:20:37.859Z,1008.58
2017-07-29T12:21:37.886Z,1008.51
2017-07-29T12:22:37.915Z,1008.6
2017-07-29T12:23:37.950Z,1008.55
2017-07-29T12:24:37.979Z,1008.54
2017-07-29T12:25:38.008Z,1008.51
2017-07-29T12:26:38.038Z,1008.45
2017-07-29T12:27:38.067Z,1008.48
2017-07-29T12:28:38.102Z,1008.5
2017-07-29T12:29:38.129Z,1008.48
2017-07-29T12:31:38.193Z,1008.55
2017-07-29T12:32:38.218Z,1008.5
2017-07-29T12:33:38.250Z,1008.53
2017-07-29T12:34:38.276Z,1008.49
2017-07-29T12:35:38.309Z,1008.43
2017-07-29T12:36:38.340Z,1008.4
2017-07-29T12:37:38.371Z,1008.45
2017-07-29T12:38:38.401Z,1008.37
2017-07-29T12:39:38.428Z,1008.42
2017-07-29T12:40:38.460Z,1008.35
2017-07-29T12:41:38.492Z,1008.39
2017-07-29T12:42:38.523Z,1008.36
2017-07-29T12:43:38.551Z,1008.29
2017-07-29T12:44:38.578Z,1008.38
2017-07-29T12:45:38.612Z,1008.43
2017-07-29T12:47:38.667Z,1008.44
2017-07-29T12:48:38.701Z,1008.44
2017-07-29T12:49:38.726Z,1008.46